Time;durP1;ratioP1;P1;durP2;ratioP2;P2;SDS_P1;SDS_P2;PMS_P1;PMS_P2;Temp;Humidity;BMP_temperature;BMP_pressure;BME280_temperature;BME280_humidity;BME280_pressure;Samples;Min_cycle;Max_cycle;Signal;HPM_P1;HPM_P2
2021/12/31 00:00:27;;;;;;;8.60;3.83;;;12.80;99.90;;;;;;5025190;28;20720;-72
2021/12/31 00:03:16;;;;;;;5.80;2.50;;;12.80;99.90;;;;;;5029052;28;20402;-72
2021/12/31 00:06:02;;;;;;;12.03;3.03;;;12.70;99.90;;;;;;5018187;28;20461;-72
2021/12/31 00:08:47;;;;;;;6.23;2.70;;;12.80;99.90;;;;;;5029274;28;20480;-72
2021/12/31 00:11:34;;;;;;;4.30;3.00;;;12.70;99.90;;;;;;5028090;28;20463;-72
2021/12/31 00:14:20;;;;;;;4.67;2.87;;;12.70;99.90;;;;;;5024554;28;20924;-72
2021/12/31 00:17:07;;;;;;;13.80;2.90;;;12.80;99.90;;;;;;5022991;28;20503;-73
2021/12/31 00:20:01;;;;;;;9.80;2.70;;;12.80;99.90;;;;;;5025725;28;20439;-72
2021/12/31 00:23:01;;;;;;;4.33;2.77;;;12.80;99.90;;;;;;5028387;28;20554;-73
2021/12/31 00:25:46;;;;;;;5.80;2.80;;;12.80;99.90;;;;;;5026689;28;20440;-72
2021/12/31 00:28:32;;;;;;;7.63;3.37;;;12.90;99.90;;;;;;5024479;28;20468;-73
2021/12/31 00:31:18;;;;;;;5.17;3.13;;;12.90;99.90;;;;;;5022499;28;20419;-72
2021/12/31 00:34:03;;;;;;;8.37;4.00;;;12.80;99.90;;;;;;5023879;28;20491;-73
2021/12/31 00:36:50;;;;;;;7.00;4.30;;;12.90;99.90;;;;;;5032226;28;20436;-72
2021/12/31 00:39:36;;;;;;;9.03;3.33;;;13.00;99.90;;;;;;5032603;28;20856;-72
2021/12/31 00:42:21;;;;;;;4.03;3.10;;;13.00;99.90;;;;;;5031925;28;20416;-72
2021/12/31 00:45:10;;;;;;;4.70;3.30;;;13.00;99.90;;;;;;5029338;28;20444;-73
2021/12/31 00:47:56;;;;;;;5.00;3.30;;;13.00;99.90;;;;;;5029223;28;20499;-72
2021/12/31 00:50:42;;;;;;;7.80;4.17;;;13.00;99.90;;;;;;5028587;28;20522;-72
2021/12/31 00:53:29;;;;;;;6.70;3.20;;;13.00;99.90;;;;;;5030257;28;20480;-72
2021/12/31 00:56:15;;;;;;;7.57;3.70;;;13.10;99.90;;;;;;5030477;28;20918;-73
2021/12/31 00:59:01;;;;;;;10.80;3.80;;;13.00;99.90;;;;;;5031030;28;20615;-72
2021/12/31 01:01:46;;;;;;;5.80;3.30;;;13.00;99.90;;;;;;5029001;28;20818;-72
2021/12/31 01:04:33;;;;;;;8.07;3.10;;;12.90;99.90;;;;;;5023487;28;20457;-73
2021/12/31 01:07:18;;;;;;;5.10;3.40;;;13.00;99.90;;;;;;5033865;28;20478;-72
2021/12/31 01:10:07;;;;;;;7.80;4.10;;;13.00;99.90;;;;;;5034077;28;20947;-73
2021/12/31 01:12:53;;;;;;;6.27;3.40;;;12.90;99.90;;;;;;5031574;28;20932;-73
2021/12/31 01:15:42;;;;;;;7.33;3.17;;;12.80;99.90;;;;;;5030577;28;21051;-73
2021/12/31 01:19:44;;;;;;;7.87;3.40;;;12.80;99.90;;;;;;5025344;28;20431;-72
2021/12/31 01:21:34;;;;;;;8.07;3.50;;;12.80;99.90;;;;;;5033791;28;20515;-72
2021/12/31 01:24:22;;;;;;;5.57;3.63;;;12.80;99.90;;;;;;5026639;28;20434;-73
2021/12/31 01:27:09;;;;;;;4.83;3.67;;;12.80;99.90;;;;;;5030281;28;20804;-72
2021/12/31 01:29:55;;;;;;;6.20;3.80;;;12.80;99.90;;;;;;5031644;28;20484;-73
2021/12/31 01:32:40;;;;;;;6.47;4.07;;;12.80;99.90;;;;;;5030850;28;20862;-72
2021/12/31 01:35:26;;;;;;;12.13;3.90;;;12.80;99.90;;;;;;5029295;28;20824;-72
2021/12/31 01:38:12;;;;;;;4.97;3.90;;;12.70;99.90;;;;;;5031803;28;20487;-73
2021/12/31 01:40:57;;;;;;;6.30;3.40;;;12.70;99.90;;;;;;5031338;28;20440;-73
2021/12/31 01:43:45;;;;;;;16.70;3.53;;;12.60;99.90;;;;;;5027130;28;20452;-72
2021/12/31 01:46:30;;;;;;;12.13;3.53;;;12.60;99.90;;;;;;5025439;28;20920;-72
2021/12/31 01:49:20;;;;;;;5.50;3.50;;;12.60;99.90;;;;;;5020818;28;21090;-72
2021/12/31 01:52:07;;;;;;;5.77;3.93;;;12.50;99.90;;;;;;5024007;28;20659;-73
2021/12/31 01:54:53;;;;;;;10.40;3.50;;;12.40;99.90;;;;;;5026068;28;20414;-73
2021/12/31 01:57:40;;;;;;;14.47;3.80;;;12.30;99.90;;;;;;5027167;28;20535;-72
2021/12/31 02:00:28;;;;;;;3.90;3.17;;;12.30;99.90;;;;;;5031004;28;20471;-73
2021/12/31 02:03:14;;;;;;;8.37;4.40;;;12.20;99.90;;;;;;5029480;28;20441;-72
2021/12/31 02:06:00;;;;;;;15.00;4.10;;;12.10;99.90;;;;;;5032822;28;20403;-72
2021/12/31 02:08:45;;;;;;;5.93;3.80;;;12.20;99.90;;;;;;5025238;28;20560;-72
2021/12/31 02:11:31;;;;;;;6.77;4.07;;;12.10;99.90;;;;;;5025559;28;20453;-71
2021/12/31 02:14:17;;;;;;;11.63;4.20;;;12.00;99.90;;;;;;5022921;28;20539;-73
2021/12/31 02:17:07;;;;;;;5.90;4.60;;;11.90;99.90;;;;;;5025633;28;20798;-73
2021/12/31 02:20:00;;;;;;;9.87;4.10;;;11.90;99.90;;;;;;5029468;28;20443;-72
2021/12/31 02:22:54;;;;;;;7.37;3.57;;;11.80;99.90;;;;;;5026290;28;20497;-73
2021/12/31 02:25:40;;;;;;;6.00;4.10;;;11.80;99.90;;;;;;5018611;28;20448;-73
2021/12/31 02:28:26;;;;;;;8.97;3.67;;;11.80;99.90;;;;;;5021764;28;20458;-72
2021/12/31 02:31:12;;;;;;;7.40;4.20;;;11.80;99.90;;;;;;5029646;28;21062;-73
2021/12/31 02:33:58;;;;;;;10.53;5.30;;;11.70;99.90;;;;;;5024669;28;20455;-72
2021/12/31 02:36:45;;;;;;;4.73;3.63;;;11.80;99.90;;;;;;5023910;28;20451;-72
2021/12/31 02:39:30;;;;;;;8.80;4.03;;;11.90;99.90;;;;;;5026514;28;20472;-71
2021/12/31 02:42:16;;;;;;;11.93;5.10;;;11.80;99.90;;;;;;5029624;28;20982;-73
2021/12/31 02:45:01;;;;;;;13.97;4.43;;;11.70;99.90;;;;;;5025694;28;20448;-71
2021/12/31 02:47:47;;;;;;;10.83;4.20;;;11.70;99.90;;;;;;5027667;28;20903;-71
2021/12/31 02:50:34;;;;;;;9.57;4.70;;;11.70;99.90;;;;;;5029508;28;20480;-72
2021/12/31 02:53:26;;;;;;;8.17;3.60;;;11.70;99.90;;;;;;5025294;28;20694;-72
2021/12/31 02:56:14;;;;;;;7.80;4.10;;;11.60;99.90;;;;;;5029154;28;20467;-72
2021/12/31 02:59:00;;;;;;;5.23;3.83;;;11.70;99.90;;;;;;5027605;28;20501;-72
2021/12/31 03:01:46;;;;;;;9.20;4.00;;;11.80;99.90;;;;;;5029422;28;20444;-72
2021/12/31 03:04:32;;;;;;;7.47;4.37;;;11.90;99.90;;;;;;5024518;28;20445;-73
2021/12/31 03:07:19;;;;;;;8.27;4.20;;;11.90;99.90;;;;;;5023215;28;20441;-73
2021/12/31 03:10:09;;;;;;;6.83;3.77;;;12.00;99.90;;;;;;5030703;28;20556;-72
2021/12/31 03:12:55;;;;;;;8.97;4.00;;;12.00;99.90;;;;;;5016481;28;20446;-73
2021/12/31 03:15:42;;;;;;;5.67;3.80;;;12.00;99.90;;;;;;5029106;28;21260;-73
2021/12/31 03:18:29;;;;;;;6.03;3.80;;;12.10;99.90;;;;;;5027664;28;20526;-73
2021/12/31 03:21:21;;;;;;;6.43;3.70;;;12.10;99.90;;;;;;5021297;28;20443;-73
2021/12/31 03:24:06;;;;;;;6.07;4.27;;;12.10;99.90;;;;;;5023803;28;20440;-73
2021/12/31 03:26:53;;;;;;;8.43;4.50;;;12.10;99.90;;;;;;5031007;28;20961;-72
2021/12/31 03:29:39;;;;;;;7.67;3.97;;;12.10;99.90;;;;;;5025447;28;20457;-73
2021/12/31 03:32:25;;;;;;;6.70;3.80;;;12.10;99.90;;;;;;5026384;28;20464;-72
2021/12/31 03:35:10;;;;;;;4.77;3.83;;;12.10;99.90;;;;;;5028573;28;20529;-72
2021/12/31 03:37:56;;;;;;;9.13;3.57;;;12.10;99.90;;;;;;5022466;28;20407;-73
2021/12/31 03:40:42;;;;;;;6.47;3.50;;;12.10;99.90;;;;;;5027187;28;20549;-72
2021/12/31 03:43:29;;;;;;;11.43;3.17;;;12.10;99.90;;;;;;5023823;28;20434;-71
2021/12/31 03:46:15;;;;;;;7.53;4.27;;;12.10;99.90;;;;;;5026722;28;20445;-73
2021/12/31 03:49:00;;;;;;;4.90;3.10;;;12.20;99.90;;;;;;5027365;28;20464;-73
2021/12/31 03:51:46;;;;;;;8.37;4.10;;;12.20;99.90;;;;;;5024941;28;21203;-72
2021/12/31 03:54:31;;;;;;;10.23;3.97;;;12.20;99.90;;;;;;5024934;28;20472;-72
2021/12/31 03:57:17;;;;;;;12.50;4.27;;;12.10;99.90;;;;;;5029881;28;20415;-73
2021/12/31 04:00:05;;;;;;;11.67;3.97;;;12.10;99.90;;;;;;5027068;28;20464;-72
2021/12/31 04:02:51;;;;;;;8.70;4.37;;;12.10;99.90;;;;;;5022443;28;20467;-72
2021/12/31 04:05:38;;;;;;;5.20;3.80;;;12.10;99.90;;;;;;5017154;28;20456;-72
2021/12/31 04:08:23;;;;;;;8.50;4.17;;;12.20;99.90;;;;;;5017321;28;20557;-72
2021/12/31 04:11:11;;;;;;;7.33;4.50;;;12.20;99.90;;;;;;5030625;28;20468;-72
2021/12/31 04:13:57;;;;;;;6.47;3.80;;;12.20;99.90;;;;;;5030787;28;20476;-73
2021/12/31 04:16:44;;;;;;;8.40;5.20;;;12.20;99.90;;;;;;5034931;28;20571;-72
2021/12/31 04:19:30;;;;;;;10.00;3.70;;;12.20;99.90;;;;;;5032059;28;20939;-73
2021/12/31 04:22:16;;;;;;;9.17;4.03;;;12.20;99.90;;;;;;5030749;28;20588;-72
2021/12/31 04:25:01;;;;;;;16.90;4.80;;;12.20;99.90;;;;;;5033677;28;20436;-72
2021/12/31 04:27:47;;;;;;;6.07;3.40;;;12.20;99.90;;;;;;5033030;28;20451;-72
2021/12/31 04:30:33;;;;;;;16.73;3.30;;;12.20;99.90;;;;;;5024908;28;20483;-72
2021/12/31 04:33:20;;;;;;;9.40;3.67;;;12.20;99.90;;;;;;5026554;28;20581;-73
2021/12/31 04:36:06;;;;;;;16.03;3.10;;;12.10;99.90;;;;;;5033019;28;20452;-72
2021/12/31 04:38:52;;;;;;;7.03;3.57;;;12.20;99.90;;;;;;5029127;28;20829;-72
2021/12/31 04:41:38;;;;;;;9.13;3.90;;;12.20;99.90;;;;;;5022328;28;20441;-72
2021/12/31 04:44:23;;;;;;;7.80;3.87;;;12.20;99.90;;;;;;5021146;28;20532;-72
2021/12/31 04:47:09;;;;;;;7.37;3.23;;;12.20;99.90;;;;;;5032334;28;20495;-71
2021/12/31 04:49:56;;;;;;;6.30;3.37;;;12.20;99.90;;;;;;5031020;28;20464;-72
2021/12/31 04:52:42;;;;;;;5.00;3.40;;;12.20;99.90;;;;;;5021792;28;20440;-72
2021/12/31 04:55:28;;;;;;;7.63;2.90;;;12.20;99.90;;;;;;5024617;28;20468;-72
2021/12/31 04:58:13;;;;;;;6.50;3.03;;;12.20;99.90;;;;;;5030167;28;20461;-72
2021/12/31 05:00:59;;;;;;;8.03;3.20;;;12.20;99.90;;;;;;5028081;28;20523;-72
2021/12/31 05:03:44;;;;;;;7.10;3.70;;;12.20;99.90;;;;;;5024501;28;20415;-72
2021/12/31 05:06:32;;;;;;;7.07;3.20;;;12.10;99.90;;;;;;5023879;28;20826;-72
2021/12/31 05:09:18;;;;;;;3.53;3.00;;;12.00;99.90;;;;;;5033211;28;20464;-72
2021/12/31 05:12:05;;;;;;;9.00;2.97;;;12.00;99.90;;;;;;5029543;28;20444;-72
2021/12/31 05:14:51;;;;;;;8.50;3.63;;;12.10;99.90;;;;;;5029069;28;20473;-72
2021/12/31 05:17:37;;;;;;;6.87;3.57;;;12.10;99.90;;;;;;5032179;28;21122;-72
2021/12/31 05:20:23;;;;;;;7.13;3.37;;;12.20;99.90;;;;;;5024397;28;20858;-72
2021/12/31 05:23:11;;;;;;;5.97;3.47;;;12.20;99.90;;;;;;5031080;28;20449;-72
2021/12/31 05:25:56;;;;;;;8.07;2.97;;;12.20;99.90;;;;;;5032534;28;20452;-72
2021/12/31 05:28:42;;;;;;;6.23;3.07;;;12.20;99.90;;;;;;5027473;28;20468;-72
2021/12/31 05:31:27;;;;;;;9.17;3.37;;;12.20;99.90;;;;;;5025951;28;20449;-72
2021/12/31 05:34:13;;;;;;;6.13;2.90;;;12.10;99.90;;;;;;5030740;28;20976;-72
2021/12/31 05:36:59;;;;;;;5.37;2.77;;;12.10;99.90;;;;;;5032473;28;20810;-72
2021/12/31 05:39:45;;;;;;;8.37;3.33;;;12.10;99.90;;;;;;5028921;28;20635;-72
2021/12/31 05:42:31;;;;;;;8.83;2.70;;;12.10;99.90;;;;;;5024579;28;20534;-72
2021/12/31 05:45:17;;;;;;;6.27;3.00;;;12.10;99.90;;;;;;5023167;28;20494;-72
2021/12/31 05:48:02;;;;;;;7.30;3.37;;;12.10;99.90;;;;;;5031756;28;20452;-72
2021/12/31 05:50:48;;;;;;;6.90;2.57;;;12.10;99.90;;;;;;5026139;28;20531;-72
2021/12/31 05:53:34;;;;;;;6.73;2.17;;;12.10;99.90;;;;;;5031009;28;20436;-72
2021/12/31 05:56:21;;;;;;;5.60;3.27;;;12.10;99.90;;;;;;5024912;28;20785;-72
2021/12/31 05:59:07;;;;;;;4.10;2.60;;;12.10;99.90;;;;;;5027258;28;20475;-72
2021/12/31 06:01:53;;;;;;;4.07;2.80;;;12.10;99.90;;;;;;5028385;28;20556;-72
2021/12/31 06:04:38;;;;;;;8.50;3.07;;;12.10;99.90;;;;;;5025501;28;20444;-72
2021/12/31 06:07:24;;;;;;;4.50;2.93;;;12.00;99.90;;;;;;5024200;28;20568;-72
2021/12/31 06:10:10;;;;;;;16.67;2.83;;;12.00;99.90;;;;;;5024442;28;20469;-72
2021/12/31 06:12:59;;;;;;;6.77;3.17;;;12.10;99.90;;;;;;5027753;28;20993;-72
2021/12/31 06:15:47;;;;;;;8.47;2.90;;;12.10;99.90;;;;;;5026918;28;20538;-72
2021/12/31 06:18:33;;;;;;;6.13;2.60;;;12.10;99.90;;;;;;5030363;28;20571;-72
2021/12/31 06:21:19;;;;;;;11.33;2.57;;;12.20;99.90;;;;;;5026074;28;20468;-72
2021/12/31 06:24:05;;;;;;;6.13;3.40;;;12.10;99.90;;;;;;5023087;28;20475;-72
2021/12/31 06:26:50;;;;;;;6.97;3.43;;;12.10;99.90;;;;;;5027731;28;20547;-72
2021/12/31 06:29:37;;;;;;;8.70;3.40;;;12.10;99.90;;;;;;5023785;28;20819;-72
2021/12/31 06:32:23;;;;;;;8.43;3.67;;;12.10;99.90;;;;;;5029112;28;20448;-72
2021/12/31 06:35:09;;;;;;;5.47;3.40;;;12.10;99.90;;;;;;5031064;28;21072;-72
2021/12/31 06:37:57;;;;;;;8.40;3.40;;;12.10;99.90;;;;;;5022952;28;20429;-72
2021/12/31 06:40:42;;;;;;;8.30;2.80;;;12.10;99.90;;;;;;5022489;28;20527;-72
2021/12/31 06:43:28;;;;;;;6.33;3.30;;;11.90;99.90;;;;;;5029637;28;20806;-72
2021/12/31 06:46:16;;;;;;;30.70;3.30;;;11.80;99.90;;;;;;5026560;28;20443;-72
2021/12/31 06:49:01;;;;;;;4.33;2.60;;;11.80;99.90;;;;;;5029520;28;20500;-72
2021/12/31 06:51:47;;;;;;;7.40;3.13;;;11.70;99.90;;;;;;5023373;28;20603;-72
2021/12/31 06:54:33;;;;;;;10.90;3.43;;;11.60;99.90;;;;;;5024947;28;20975;-72
2021/12/31 06:57:18;;;;;;;7.30;2.63;;;11.50;99.90;;;;;;5023881;28;20594;-72
2021/12/31 07:00:05;;;;;;;13.73;3.17;;;11.50;99.90;;;;;;5029064;28;20554;-72
2021/12/31 07:03:03;;;;;;;7.50;2.87;;;11.30;99.90;;;;;;5023174;28;20448;-72
2021/12/31 07:05:49;;;;;;;14.77;4.77;;;11.20;99.90;;;;;;5026894;28;20447;-72
2021/12/31 07:08:35;;;;;;;6.60;3.00;;;11.20;99.90;;;;;;5029519;28;20485;-72
2021/12/31 07:11:22;;;;;;;5.90;2.90;;;11.10;99.90;;;;;;5021165;28;20942;-71
2021/12/31 07:14:07;;;;;;;8.33;2.80;;;11.00;99.90;;;;;;5029340;28;20491;-72
2021/12/31 07:16:53;;;;;;;6.97;3.00;;;10.80;99.90;;;;;;5030249;28;20802;-72
2021/12/31 07:19:40;;;;;;;4.57;2.57;;;10.80;99.90;;;;;;5023620;28;20472;-72
2021/12/31 07:22:26;;;;;;;7.57;3.20;;;10.70;99.90;;;;;;5023378;28;20448;-72
2021/12/31 07:25:11;;;;;;;6.43;2.40;;;10.60;99.90;;;;;;5026456;28;20492;-72
2021/12/31 07:27:57;;;;;;;5.00;2.10;;;10.50;99.90;;;;;;5028236;28;21005;-72
2021/12/31 07:30:44;;;;;;;3.23;2.30;;;10.30;99.90;;;;;;5028989;28;20457;-72
2021/12/31 07:33:30;;;;;;;4.33;3.00;;;10.30;99.90;;;;;;5026784;28;20469;-72
2021/12/31 07:36:17;;;;;;;4.77;3.20;;;10.20;99.90;;;;;;5030861;28;20472;-72
2021/12/31 07:39:06;;;;;;;7.80;2.90;;;10.30;99.90;;;;;;5024573;28;20600;-72
2021/12/31 07:41:52;;;;;;;6.67;2.77;;;10.30;99.90;;;;;;5028301;28;20965;-72
2021/12/31 07:44:38;;;;;;;5.13;2.30;;;10.30;99.90;;;;;;5025618;28;20407;-72
2021/12/31 07:47:24;;;;;;;11.10;2.17;;;10.10;99.90;;;;;;5032943;28;20534;-72
2021/12/31 07:50:09;;;;;;;4.30;2.60;;;10.10;99.90;;;;;;5029562;28;20460;-72
2021/12/31 07:52:57;;;;;;;5.07;2.10;;;10.10;99.90;;;;;;5031270;28;20972;-72
2021/12/31 07:55:43;;;;;;;3.60;2.57;;;10.10;99.90;;;;;;5029708;28;20450;-72
2021/12/31 07:58:29;;;;;;;6.73;2.33;;;10.00;99.90;;;;;;5024676;28;20448;-72
2021/12/31 08:01:16;;;;;;;3.63;2.50;;;10.00;99.90;;;;;;5032131;28;20456;-72
2021/12/31 08:04:02;;;;;;;3.50;2.10;;;9.90;99.90;;;;;;5032582;28;20463;-72
2021/12/31 08:06:47;;;;;;;4.77;2.20;;;9.90;99.90;;;;;;5034249;28;20953;-72
2021/12/31 08:09:34;;;;;;;8.37;2.07;;;9.90;99.90;;;;;;5021296;28;20475;-72
2021/12/31 08:12:20;;;;;;;4.97;2.17;;;10.00;99.90;;;;;;5032870;28;20871;-72
2021/12/31 08:15:07;;;;;;;5.40;2.50;;;10.00;99.90;;;;;;5033694;28;20479;-71
2021/12/31 08:17:54;;;;;;;3.40;2.00;;;9.90;99.90;;;;;;5027454;28;20467;-71
2021/12/31 08:20:39;;;;;;;4.13;2.97;;;9.90;99.90;;;;;;5032004;28;20439;-72
2021/12/31 08:23:25;;;;;;;2.70;1.83;;;10.00;99.90;;;;;;5033060;28;20406;-71
2021/12/31 08:26:12;;;;;;;5.37;1.80;;;10.00;99.90;;;;;;5033095;28;20467;-71
2021/12/31 08:29:01;;;;;;;4.30;2.03;;;10.00;99.90;;;;;;5025226;28;20879;-73
2021/12/31 08:31:46;;;;;;;4.97;2.80;;;10.00;99.90;;;;;;5023757;28;20496;-72
2021/12/31 08:34:32;;;;;;;4.67;2.20;;;10.00;99.90;;;;;;5031657;28;20447;-71
2021/12/31 08:37:18;;;;;;;6.90;2.20;;;10.00;99.90;;;;;;5033690;28;20444;-72
2021/12/31 08:40:05;;;;;;;8.80;2.20;;;10.00;99.90;;;;;;5030590;28;20460;-71
2021/12/31 08:42:52;;;;;;;8.33;3.13;;;10.00;99.90;;;;;;5034388;28;20490;-72
2021/12/31 08:45:38;;;;;;;3.43;2.10;;;10.10;99.90;;;;;;5027169;28;20418;-71
2021/12/31 08:48:24;;;;;;;3.90;2.17;;;10.00;99.90;;;;;;5020266;28;20608;-71
2021/12/31 08:51:09;;;;;;;5.50;2.90;;;10.10;99.90;;;;;;5030628;28;20437;-71
2021/12/31 08:53:55;;;;;;;4.80;2.73;;;10.20;99.90;;;;;;5025501;28;20448;-72
2021/12/31 08:56:43;;;;;;;3.50;2.60;;;10.20;99.90;;;;;;5026637;28;20479;-72
2021/12/31 08:59:30;;;;;;;7.03;3.10;;;10.40;99.90;;;;;;5023962;28;20616;-71
2021/12/31 09:02:15;;;;;;;5.50;3.40;;;10.50;99.90;;;;;;5029470;28;20473;-72
2021/12/31 09:05:01;;;;;;;9.07;4.07;;;10.70;99.90;;;;;;5023597;28;21001;-71
2021/12/31 09:07:47;;;;;;;6.87;3.60;;;10.80;99.90;;;;;;5021011;28;20946;-72
2021/12/31 09:10:33;;;;;;;6.53;4.13;;;10.90;99.90;;;;;;5033911;28;20433;-71
2021/12/31 09:13:19;;;;;;;6.00;2.93;;;11.00;99.90;;;;;;5032758;28;20503;-72
2021/12/31 09:16:06;;;;;;;8.23;3.77;;;11.00;99.90;;;;;;5032908;28;20535;-71
2021/12/31 09:18:52;;;;;;;7.37;3.00;;;11.10;99.90;;;;;;5027615;28;20935;-71
2021/12/31 09:21:37;;;;;;;3.80;2.70;;;11.30;99.90;;;;;;5022027;28;20440;-72
2021/12/31 09:24:23;;;;;;;5.40;2.87;;;11.30;99.90;;;;;;5028634;28;20444;-72
2021/12/31 09:27:09;;;;;;;4.77;3.27;;;11.40;99.90;;;;;;5028530;28;20441;-71
2021/12/31 09:29:54;;;;;;;5.10;3.20;;;11.50;99.90;;;;;;5021530;28;20484;-72
2021/12/31 09:32:41;;;;;;;3.57;2.70;;;11.50;99.90;;;;;;5026714;28;20452;-71
2021/12/31 09:35:27;;;;;;;5.93;2.97;;;11.70;99.90;;;;;;5023119;28;20451;-72
2021/12/31 09:38:12;;;;;;;9.73;2.90;;;11.70;99.90;;;;;;5030013;28;20517;-72
2021/12/31 09:40:58;;;;;;;4.53;2.43;;;11.90;99.90;;;;;;5032195;28;20447;-71
2021/12/31 09:43:49;;;;;;;10.13;3.77;;;12.10;99.90;;;;;;5031412;28;20431;-71
2021/12/31 09:46:35;;;;;;;9.13;2.80;;;12.10;99.90;;;;;;5025999;28;21031;-71
2021/12/31 09:49:22;;;;;;;4.33;2.80;;;12.20;99.90;;;;;;5031051;28;21097;-71
2021/12/31 09:52:10;;;;;;;10.43;2.30;;;12.20;99.90;;;;;;5031827;28;20440;-72
2021/12/31 09:54:55;;;;;;;4.03;2.70;;;12.20;99.90;;;;;;5027793;28;20902;-72
2021/12/31 09:57:41;;;;;;;6.13;2.97;;;12.30;99.90;;;;;;5023770;28;20435;-71
2021/12/31 10:00:27;;;;;;;5.53;2.73;;;12.30;99.90;;;;;;5023546;28;20476;-72
2021/12/31 10:03:14;;;;;;;3.53;2.30;;;12.40;99.90;;;;;;5028032;28;20419;-72
2021/12/31 10:06:02;;;;;;;5.80;2.77;;;12.50;99.90;;;;;;5019605;28;20453;-72
2021/12/31 10:08:49;;;;;;;7.23;3.43;;;12.50;99.90;;;;;;5029424;28;20443;-72
2021/12/31 10:11:35;;;;;;;4.90;2.73;;;12.60;99.90;;;;;;5030561;28;20430;-71
2021/12/31 10:14:34;;;;;;;4.83;2.60;;;12.60;99.90;;;;;;5027091;28;20428;-72
2021/12/31 10:17:35;;;;;;;6.63;2.50;;;12.70;99.90;;;;;;5027336;28;20640;-72
2021/12/31 10:20:21;;;;;;;8.10;2.47;;;12.80;99.90;;;;;;5031984;28;20453;-71
2021/12/31 10:23:15;;;;;;;7.00;2.73;;;12.80;99.90;;;;;;5023988;28;20411;-72
2021/12/31 10:26:13;;;;;;;7.50;2.70;;;12.90;99.90;;;;;;5030261;28;20778;-71
2021/12/31 10:29:00;;;;;;;4.70;2.90;;;13.00;99.90;;;;;;5029487;28;20481;-72
2021/12/31 10:31:47;;;;;;;5.07;2.20;;;13.30;99.90;;;;;;5031367;28;20809;-72
2021/12/31 10:34:34;;;;;;;4.00;1.80;;;13.60;99.90;;;;;;5025826;28;20923;-72
2021/12/31 10:37:23;;;;;;;3.80;2.03;;;14.10;99.90;;;;;;5023461;28;20407;-71
2021/12/31 10:40:12;;;;;;;7.00;2.47;;;14.60;99.90;;;;;;5030363;28;20439;-71
2021/12/31 10:43:12;;;;;;;5.37;2.13;;;14.80;99.90;;;;;;5027580;28;20444;-71
2021/12/31 10:46:02;;;;;;;4.63;2.27;;;14.90;99.90;;;;;;5025361;28;20456;-71
2021/12/31 10:48:50;;;;;;;5.03;2.30;;;15.10;99.90;;;;;;5022761;28;20444;-72
2021/12/31 10:51:40;;;;;;;7.23;2.77;;;15.50;99.90;;;;;;5022722;28;20447;-71
2021/12/31 10:54:32;;;;;;;3.50;2.27;;;15.80;99.90;;;;;;5028323;28;20399;-71
2021/12/31 10:57:35;;;;;;;5.80;2.27;;;15.90;99.90;;;;;;5018378;28;20467;-70
2021/12/31 11:00:24;;;;;;;5.40;2.60;;;16.10;99.90;;;;;;5024767;28;20639;-70
2021/12/31 11:03:10;;;;;;;6.90;2.43;;;16.30;99.90;;;;;;5031685;28;20417;-70
2021/12/31 11:05:58;;;;;;;7.20;2.70;;;16.60;99.90;;;;;;5028073;28;20495;-70
2021/12/31 11:08:45;;;;;;;11.53;2.37;;;16.70;99.90;;;;;;5026563;28;20562;-70
2021/12/31 11:11:31;;;;;;;4.17;2.27;;;16.80;99.90;;;;;;5029621;28;20926;-70
2021/12/31 11:14:18;;;;;;;8.23;2.20;;;16.70;99.90;;;;;;5031788;28;20403;-70
2021/12/31 11:17:05;;;;;;;4.13;2.10;;;16.40;99.90;;;;;;5014022;28;20697;-70
2021/12/31 11:19:52;;;;;;;3.80;2.50;;;16.20;99.90;;;;;;5028831;28;20534;-70
2021/12/31 11:22:38;;;;;;;6.83;2.73;;;15.90;99.90;;;;;;5031617;28;20412;-70
2021/12/31 11:25:26;;;;;;;3.93;2.17;;;15.60;99.90;;;;;;5019425;28;20497;-70
2021/12/31 11:28:24;;;;;;;6.60;2.60;;;15.40;99.90;;;;;;5030853;28;20650;-70
2021/12/31 11:31:25;;;;;;;5.20;2.67;;;15.00;99.90;;;;;;5031585;28;20399;-70
2021/12/31 11:34:16;;;;;;;5.20;2.30;;;15.00;99.90;;;;;;5026971;28;20423;-70
2021/12/31 11:37:02;;;;;;;3.57;1.90;;;14.90;99.90;;;;;;5016652;28;20479;-70
2021/12/31 11:39:48;;;;;;;3.50;2.00;;;14.80;99.90;;;;;;5027633;28;20468;-70
2021/12/31 11:42:33;;;;;;;5.80;2.63;;;14.70;99.90;;;;;;5031416;28;20419;-70
2021/12/31 11:45:19;;;;;;;3.83;2.43;;;14.70;99.90;;;;;;5024546;28;20575;-70
2021/12/31 11:48:48;;;;;;;3.53;2.27;;;14.60;99.90;;;;;;5025854;28;20468;-70
2021/12/31 11:51:36;;;;;;;3.40;1.80;;;14.60;99.90;;;;;;5029751;28;20426;-70
2021/12/31 11:54:21;;;;;;;3.03;1.90;;;14.50;99.90;;;;;;5024936;28;20453;-70
2021/12/31 11:57:12;;;;;;;2.27;1.53;;;14.60;99.90;;;;;;5021003;28;20468;-70
2021/12/31 11:59:59;;;;;;;6.30;2.20;;;14.60;99.90;;;;;;5029481;28;20801;-70
2021/12/31 12:02:44;;;;;;;4.50;1.80;;;14.60;99.90;;;;;;5028859;28;20926;-70
2021/12/31 12:05:44;;;;;;;6.53;2.30;;;14.50;99.90;;;;;;5023864;28;20780;-70
2021/12/31 12:08:29;;;;;;;4.83;2.13;;;14.50;99.90;;;;;;5021087;28;21079;-70
2021/12/31 12:11:55;;;;;;;2.80;1.83;;;14.50;99.90;;;;;;5027284;28;20990;-70
2021/12/31 12:14:42;;;;;;;6.23;2.10;;;14.50;99.90;;;;;;5027328;28;20564;-70
2021/12/31 12:17:43;;;;;;;5.87;2.00;;;14.50;99.90;;;;;;5025483;28;20511;-70
2021/12/31 12:20:37;;;;;;;2.00;1.33;;;14.50;99.90;;;;;;5025441;28;20612;-70
2021/12/31 12:23:24;;;;;;;9.43;2.27;;;14.50;99.90;;;;;;5021660;28;20505;-71
2021/12/31 12:26:10;;;;;;;2.90;2.03;;;14.50;99.90;;;;;;5025059;28;20477;-70
2021/12/31 12:28:56;;;;;;;4.43;2.13;;;14.50;99.90;;;;;;5020719;28;20460;-71
2021/12/31 12:31:50;;;;;;;5.47;2.77;;;14.50;99.90;;;;;;5027336;28;20784;-70
2021/12/31 12:34:35;;;;;;;7.30;1.93;;;14.60;99.90;;;;;;5026207;28;20465;-70
2021/12/31 12:37:27;;;;;;;6.20;1.93;;;14.50;99.90;;;;;;5031490;28;20490;-70
2021/12/31 12:40:14;;;;;;;6.87;2.00;;;14.50;99.90;;;;;;5024524;28;21032;-70
2021/12/31 12:43:00;;;;;;;3.90;2.40;;;14.30;99.90;;;;;;5028610;28;20497;-70
2021/12/31 12:45:48;;;;;;;2.50;1.63;;;14.20;99.90;;;;;;5026212;28;20452;-70
2021/12/31 12:48:36;;;;;;;3.83;1.97;;;14.10;99.90;;;;;;5032188;28;20468;-70
2021/12/31 12:51:28;;;;;;;3.00;1.70;;;14.00;99.90;;;;;;5025577;28;20932;-70
2021/12/31 12:54:19;;;;;;;3.63;2.13;;;13.90;99.90;;;;;;5028483;28;20440;-70
2021/12/31 12:57:07;;;;;;;2.60;1.83;;;14.00;99.90;;;;;;5031012;28;20560;-70
2021/12/31 12:59:53;;;;;;;5.07;2.03;;;14.00;99.90;;;;;;5024392;28;20504;-70
2021/12/31 13:02:40;;;;;;;6.83;2.13;;;13.90;99.90;;;;;;5025323;28;20448;-70
2021/12/31 13:05:29;;;;;;;6.60;2.53;;;13.90;99.90;;;;;;5024952;28;20418;-70
2021/12/31 13:08:17;;;;;;;5.60;2.27;;;14.00;99.90;;;;;;5027848;28;20420;-70
2021/12/31 13:11:04;;;;;;;4.80;2.10;;;14.00;99.90;;;;;;5023765;28;20481;-70
2021/12/31 13:13:51;;;;;;;6.43;2.70;;;14.00;99.90;;;;;;5028269;28;21034;-70
2021/12/31 13:16:37;;;;;;;4.80;2.70;;;13.90;99.90;;;;;;5031979;28;20517;-70
2021/12/31 13:19:30;;;;;;;4.80;2.17;;;13.90;99.90;;;;;;5029430;28;21067;-70
2021/12/31 13:22:16;;;;;;;4.33;2.80;;;13.90;99.90;;;;;;5031913;28;20557;-70
2021/12/31 13:25:01;;;;;;;8.43;2.60;;;13.90;99.90;;;;;;5028413;28;20912;-70
2021/12/31 13:27:47;;;;;;;2.90;1.80;;;13.90;99.90;;;;;;5033733;28;20448;-70
2021/12/31 13:30:54;;;;;;;3.40;2.40;;;13.90;99.90;;;;;;5022032;28;20462;-71
2021/12/31 13:33:41;;;;;;;3.37;2.13;;;13.90;99.90;;;;;;5021097;28;20860;-70
2021/12/31 13:36:29;;;;;;;4.20;2.33;;;13.90;99.90;;;;;;5030442;28;20471;-70
2021/12/31 13:39:16;;;;;;;7.03;2.67;;;13.80;99.90;;;;;;5031665;28;20595;-70
2021/12/31 13:42:03;;;;;;;8.13;2.60;;;13.70;99.90;;;;;;5030330;28;20462;-70
2021/12/31 13:44:50;;;;;;;3.03;1.90;;;13.60;99.90;;;;;;5025760;28;20462;-70
2021/12/31 13:47:38;;;;;;;4.30;2.70;;;13.60;99.90;;;;;;5026833;28;20873;-69
2021/12/31 13:50:30;;;;;;;4.67;2.43;;;13.60;99.90;;;;;;5027371;28;20600;-70
2021/12/31 13:53:21;;;;;;;4.97;2.63;;;13.60;99.90;;;;;;5027984;28;20784;-70
2021/12/31 13:56:07;;;;;;;4.47;2.40;;;13.60;99.90;;;;;;5029846;28;20449;-70
2021/12/31 13:58:52;;;;;;;3.10;2.00;;;13.60;99.90;;;;;;5032371;28;20543;-70
2021/12/31 14:01:38;;;;;;;5.80;2.20;;;13.60;99.90;;;;;;5012793;28;20404;-70
2021/12/31 14:04:25;;;;;;;6.13;2.73;;;13.70;99.90;;;;;;5026942;28;20513;-70
2021/12/31 14:07:19;;;;;;;3.30;2.00;;;13.70;99.90;;;;;;5032597;28;20400;-70
2021/12/31 14:10:08;;;;;;;9.93;2.93;;;13.80;99.90;;;;;;5030231;28;20559;-70
2021/12/31 14:12:57;;;;;;;6.63;3.03;;;13.70;99.90;;;;;;5026179;28;20468;-70
2021/12/31 14:15:43;;;;;;;4.47;2.80;;;13.70;99.90;;;;;;5024396;28;20937;-70
2021/12/31 14:18:28;;;;;;;3.70;2.77;;;13.70;99.90;;;;;;5026249;28;20436;-70
2021/12/31 14:21:15;;;;;;;3.57;2.40;;;13.80;99.90;;;;;;5029394;28;20444;-70
2021/12/31 14:24:01;;;;;;;4.50;2.03;;;13.80;99.90;;;;;;5028940;28;20981;-70
2021/12/31 14:26:46;;;;;;;7.80;2.90;;;13.70;99.90;;;;;;5033621;28;20914;-70
2021/12/31 14:29:32;;;;;;;7.33;3.87;;;13.70;99.90;;;;;;5025407;28;21004;-70